Time;durP1;ratioP1;P1;durP2;ratioP2;P2;SDS_P1;SDS_P2;PMS_P1;PMS_P2;Temp;Humidity;BMP_temperature;BMP_pressure;BME280_temperature;BME280_humidity;BME280_pressure;Samples;Min_cycle;Max_cycle;Signal;HPM_P1;HPM_P2
2021/07/26 00:01:51;;;;;;;10.02;5.00;;;14.20;98.00;;;;;;6309417;22;20005;-76
2021/07/26 00:04:17;;;;;;;7.45;4.32;;;14.20;98.00;;;;;;6283705;22;20000;-76
2021/07/26 00:06:43;;;;;;;7.57;4.90;;;14.20;98.00;;;;;;6310530;22;20031;-77
2021/07/26 00:09:09;;;;;;;8.85;4.93;;;14.20;98.00;;;;;;6310743;22;19999;-77
2021/07/26 00:11:35;;;;;;;8.15;3.97;;;14.20;98.00;;;;;;6311024;22;20003;-77
2021/07/26 00:14:00;;;;;;;8.57;4.40;;;14.20;98.00;;;;;;6310147;22;20681;-77
2021/07/26 00:16:26;;;;;;;9.90;4.70;;;14.20;98.00;;;;;;6282346;22;20091;-77
2021/07/26 00:18:52;;;;;;;15.63;4.50;;;14.30;98.00;;;;;;6310235;22;20049;-77
2021/07/26 00:21:18;;;;;;;7.57;4.57;;;14.30;98.00;;;;;;6310802;22;20041;-77
2021/07/26 00:23:43;;;;;;;8.77;5.00;;;14.30;98.00;;;;;;6283055;22;20046;-76
2021/07/26 00:26:09;;;;;;;11.43;4.20;;;14.20;98.00;;;;;;6282623;22;20003;-77
2021/07/26 00:28:35;;;;;;;8.02;4.70;;;14.20;97.90;;;;;;6309770;22;19999;-78
2021/07/26 00:31:01;;;;;;;6.97;4.10;;;14.20;98.00;;;;;;6280974;22;20364;-77
2021/07/26 00:34:13;;;;;;;7.63;4.13;;;14.20;97.90;;;;;;6310508;22;20082;-77
2021/07/26 00:36:43;;;;;;;8.45;4.20;;;14.20;98.00;;;;;;6271585;22;20011;-77
2021/07/26 00:39:11;;;;;;;7.82;4.60;;;14.20;97.90;;;;;;6310417;22;20086;-77
2021/07/26 00:41:38;;;;;;;8.50;4.63;;;14.30;98.00;;;;;;6310462;22;20513;-76
2021/07/26 00:44:05;;;;;;;8.63;4.68;;;14.30;98.00;;;;;;6282594;22;20029;-76
2021/07/26 00:46:31;;;;;;;7.50;4.68;;;14.20;98.00;;;;;;6308638;22;20264;-76
2021/07/26 00:48:57;;;;;;;6.80;4.40;;;14.30;98.00;;;;;;6308519;22;20014;-77
2021/07/26 00:51:23;;;;;;;6.65;4.40;;;14.40;98.00;;;;;;6282872;22;20030;-76
2021/07/26 00:53:49;;;;;;;8.02;4.50;;;14.40;98.00;;;;;;6309224;22;20389;-77
2021/07/26 00:56:15;;;;;;;6.65;4.32;;;14.50;98.00;;;;;;6310284;22;20006;-77
2021/07/26 00:58:41;;;;;;;8.77;4.35;;;14.70;98.00;;;;;;6283011;22;20000;-77
2021/07/26 01:01:09;;;;;;;8.45;3.83;;;14.90;98.00;;;;;;6307776;22;20012;-77
2021/07/26 01:03:34;;;;;;;8.13;4.43;;;15.10;98.00;;;;;;6282514;22;20003;-76
2021/07/26 01:06:00;;;;;;;7.40;3.88;;;15.20;98.00;;;;;;6282719;22;20430;-77
2021/07/26 01:08:26;;;;;;;6.35;3.45;;;15.30;98.00;;;;;;6283363;22;20007;-76
2021/07/26 01:10:51;;;;;;;6.60;3.50;;;15.30;98.00;;;;;;6282094;22;20030;-77
2021/07/26 01:13:17;;;;;;;6.28;3.75;;;15.40;98.00;;;;;;6282876;22;20250;-77
2021/07/26 01:15:43;;;;;;;6.45;3.70;;;15.50;98.00;;;;;;6307594;22;20060;-76
2021/07/26 01:18:23;;;;;;;6.88;4.00;;;15.60;98.00;;;;;;6309605;22;20361;-77
2021/07/26 01:21:01;;;;;;;5.57;3.65;;;15.60;98.00;;;;;;6281994;22;20320;-76
2021/07/26 01:23:29;;;;;;;6.50;3.72;;;15.60;98.00;;;;;;6310234;22;20005;-77
2021/07/26 01:25:55;;;;;;;8.85;3.75;;;15.60;98.00;;;;;;6309309;22;20010;-77
2021/07/26 01:28:22;;;;;;;6.90;4.20;;;15.60;98.00;;;;;;6309712;22;20091;-77
2021/07/26 01:30:49;;;;;;;7.13;3.65;;;15.60;97.90;;;;;;6308311;22;20007;-77
2021/07/26 01:33:17;;;;;;;9.30;4.22;;;15.60;97.80;;;;;;6309568;22;20096;-77
2021/07/26 01:35:43;;;;;;;5.95;3.58;;;15.60;97.70;;;;;;6282673;22;20392;-77
2021/07/26 01:38:10;;;;;;;7.55;3.90;;;15.60;98.00;;;;;;6309014;22;19999;-77
2021/07/26 01:40:38;;;;;;;6.13;3.60;;;15.50;98.00;;;;;;6310330;22;20005;-77
2021/07/26 01:43:06;;;;;;;7.97;3.97;;;15.40;98.00;;;;;;6282138;22;20042;-77
2021/07/26 01:45:39;;;;;;;9.82;3.70;;;15.40;98.00;;;;;;6280901;22;20007;-77
2021/07/26 01:48:14;;;;;;;18.35;3.75;;;15.40;98.00;;;;;;6309830;22;20056;-77
2021/07/26 01:50:49;;;;;;;7.72;3.85;;;15.30;98.00;;;;;;6282633;22;20443;-77
2021/07/26 01:53:15;;;;;;;7.45;3.78;;;15.30;98.00;;;;;;6309717;22;20019;-77
2021/07/26 01:55:41;;;;;;;7.10;3.92;;;15.20;98.00;;;;;;6309692;22;20361;-77
2021/07/26 01:58:07;;;;;;;7.20;3.95;;;15.20;98.00;;;;;;6309328;22;19995;-77
2021/07/26 02:00:33;;;;;;;6.53;4.10;;;15.10;98.00;;;;;;6308551;22;20006;-77
2021/07/26 02:03:00;;;;;;;9.75;4.90;;;15.00;98.00;;;;;;6308886;22;19996;-77
2021/07/26 02:05:26;;;;;;;8.85;4.18;;;14.90;98.00;;;;;;6309590;22;19999;-76
2021/07/26 02:07:51;;;;;;;9.27;4.55;;;14.90;98.00;;;;;;6282362;22;20006;-77
2021/07/26 02:10:21;;;;;;;6.75;3.90;;;14.90;98.00;;;;;;6282317;22;20030;-77
2021/07/26 02:12:47;;;;;;;6.88;4.30;;;14.80;98.00;;;;;;6308951;22;20361;-76
2021/07/26 02:15:13;;;;;;;6.82;4.28;;;14.80;98.00;;;;;;6307031;22;20003;-76
2021/07/26 02:17:38;;;;;;;8.80;4.72;;;14.80;98.00;;;;;;6309572;22;20023;-76
2021/07/26 02:20:04;;;;;;;7.43;4.18;;;14.80;98.00;;;;;;6309388;22;20004;-77
2021/07/26 02:22:31;;;;;;;7.07;4.22;;;14.80;98.00;;;;;;6309624;22;20003;-77
2021/07/26 02:24:57;;;;;;;7.15;4.28;;;14.90;98.00;;;;;;6309262;22;20314;-78
2021/07/26 02:27:24;;;;;;;8.73;3.83;;;14.90;98.00;;;;;;6282743;22;20145;-77
2021/07/26 02:29:49;;;;;;;8.48;4.65;;;14.90;98.00;;;;;;6280357;22;20420;-77
2021/07/26 02:32:15;;;;;;;9.45;4.40;;;14.90;98.00;;;;;;6282363;22;20010;-77
2021/07/26 02:34:41;;;;;;;8.15;4.28;;;14.90;98.00;;;;;;6309617;22;19999;-77
2021/07/26 02:37:06;;;;;;;6.60;4.00;;;14.90;98.00;;;;;;6307249;22;20011;-77
2021/07/26 02:39:32;;;;;;;6.40;4.03;;;15.00;98.00;;;;;;6308987;22;19998;-77
2021/07/26 02:41:58;;;;;;;7.22;3.97;;;15.00;98.00;;;;;;6281608;22;20003;-78
2021/07/26 02:44:23;;;;;;;8.73;4.70;;;15.00;98.00;;;;;;6307882;22;20003;-77
2021/07/26 02:46:49;;;;;;;9.57;4.03;;;15.00;98.00;;;;;;6280969;22;20014;-77
2021/07/26 02:49:17;;;;;;;7.28;4.10;;;14.90;98.00;;;;;;6282215;22;20268;-77
2021/07/26 02:51:43;;;;;;;6.85;3.85;;;15.00;98.00;;;;;;6308851;22;20015;-77
2021/07/26 02:54:08;;;;;;;7.50;4.13;;;14.90;98.00;;;;;;6281575;22;20011;-77
2021/07/26 02:56:34;;;;;;;8.88;4.30;;;15.00;98.00;;;;;;6309204;22;20300;-77
2021/07/26 02:59:00;;;;;;;6.47;3.97;;;15.00;98.00;;;;;;6308547;22;19995;-76
2021/07/26 03:01:32;;;;;;;8.07;4.00;;;15.00;98.00;;;;;;6307665;22;20006;-77
2021/07/26 03:03:57;;;;;;;9.48;4.53;;;15.00;98.00;;;;;;6308773;22;20000;-77
2021/07/26 03:06:23;;;;;;;7.95;4.45;;;15.10;98.00;;;;;;6308674;22;20012;-77
2021/07/26 03:08:49;;;;;;;7.32;4.15;;;15.10;98.00;;;;;;6309462;22;20010;-77
2021/07/26 03:11:14;;;;;;;9.15;3.92;;;15.20;98.00;;;;;;6311239;22;20003;-77
2021/07/26 03:13:42;;;;;;;7.47;3.78;;;15.30;98.00;;;;;;6284504;22;20003;-77
2021/07/26 03:16:09;;;;;;;6.55;3.65;;;15.30;98.00;;;;;;6309449;22;20011;-76
2021/07/26 03:18:36;;;;;;;8.38;3.60;;;15.30;98.00;;;;;;6309938;22;20006;-77
2021/07/26 03:21:02;;;;;;;16.38;3.97;;;15.40;98.00;;;;;;6283670;22;19996;-76
2021/07/26 03:23:28;;;;;;;6.25;3.72;;;15.40;98.00;;;;;;6311009;22;20042;-77
2021/07/26 03:25:54;;;;;;;6.57;3.72;;;15.40;98.00;;;;;;6309976;22;20629;-77
2021/07/26 03:28:19;;;;;;;7.95;3.95;;;15.40;98.00;;;;;;6311750;22;20009;-77
2021/07/26 03:30:45;;;;;;;5.90;3.70;;;15.40;98.00;;;;;;6309597;22;20265;-77
2021/07/26 03:33:11;;;;;;;8.40;4.38;;;15.40;98.00;;;;;;6310089;22;20003;-77
2021/07/26 03:35:38;;;;;;;5.82;3.15;;;15.40;98.00;;;;;;6310263;22;20242;-77
2021/07/26 03:38:05;;;;;;;6.82;3.78;;;15.30;98.00;;;;;;6310822;22;20045;-77
2021/07/26 03:40:34;;;;;;;6.47;4.20;;;15.20;98.00;;;;;;6284062;22;20003;-76
2021/07/26 03:43:01;;;;;;;6.80;3.88;;;15.20;98.00;;;;;;6310566;22;20025;-77
2021/07/26 03:45:28;;;;;;;7.93;4.57;;;15.20;98.00;;;;;;6309555;22;20012;-77
2021/07/26 03:47:56;;;;;;;6.95;3.92;;;15.20;98.00;;;;;;6283497;22;20384;-76
2021/07/26 03:50:22;;;;;;;8.98;4.30;;;15.10;98.00;;;;;;6311462;22;20006;-77
2021/07/26 03:52:49;;;;;;;8.45;3.88;;;15.20;98.00;;;;;;6310584;22;20030;-76
2021/07/26 03:55:28;;;;;;;7.75;4.03;;;15.20;98.00;;;;;;6283757;22;20014;-76
2021/07/26 03:57:54;;;;;;;8.00;3.80;;;15.20;98.00;;;;;;6310209;22;19999;-77
2021/07/26 04:00:21;;;;;;;7.28;3.97;;;15.20;98.00;;;;;;6282295;22;20264;-77
2021/07/26 04:02:56;;;;;;;6.47;4.00;;;15.20;98.00;;;;;;6283878;22;20010;-77
2021/07/26 04:05:34;;;;;;;10.60;3.83;;;15.20;98.00;;;;;;6310991;22;19999;-76
2021/07/26 04:08:12;;;;;;;9.38;4.00;;;15.10;98.00;;;;;;6309916;22;19999;-76
2021/07/26 04:10:41;;;;;;;7.88;3.70;;;15.20;98.00;;;;;;6310646;22;20003;-77
2021/07/26 04:13:07;;;;;;;9.55;4.60;;;15.30;98.00;;;;;;6310441;22;20276;-76
2021/07/26 04:15:32;;;;;;;7.88;4.05;;;15.30;98.00;;;;;;6309107;22;20003;-77
2021/07/26 04:17:58;;;;;;;9.75;4.78;;;15.20;98.00;;;;;;6310068;22;20069;-77
2021/07/26 04:20:24;;;;;;;7.65;4.65;;;15.30;98.00;;;;;;6310268;22;20082;-76
2021/07/26 04:22:49;;;;;;;7.70;4.13;;;15.30;98.00;;;;;;6283518;22;20272;-76
2021/07/26 04:25:16;;;;;;;5.70;3.55;;;15.30;98.00;;;;;;6310403;22;20265;-77
2021/07/26 04:27:42;;;;;;;6.78;3.38;;;15.30;98.00;;;;;;6283507;22;20086;-77
2021/07/26 04:30:08;;;;;;;6.78;3.72;;;15.40;98.00;;;;;;6308692;22;20088;-77
2021/07/26 04:33:00;;;;;;;6.53;3.35;;;15.60;98.00;;;;;;6310478;22;19995;-77
2021/07/26 04:35:26;;;;;;;6.18;3.55;;;15.70;98.00;;;;;;6304968;22;20052;-77
2021/07/26 04:37:51;;;;;;;7.88;3.70;;;15.70;98.00;;;;;;6310308;22;20303;-77
2021/07/26 04:40:17;;;;;;;6.50;3.65;;;15.70;98.00;;;;;;6310297;22;20003;-77
2021/07/26 04:42:44;;;;;;;6.95;3.80;;;15.70;98.00;;;;;;6283070;22;20052;-77
2021/07/26 04:45:11;;;;;;;8.48;3.88;;;15.60;98.00;;;;;;6282149;22;20007;-76
2021/07/26 04:47:38;;;;;;;7.57;3.90;;;15.70;98.00;;;;;;6310521;22;20273;-76
2021/07/26 04:50:05;;;;;;;11.50;4.30;;;15.70;98.00;;;;;;6311007;22;19999;-76
2021/07/26 04:52:31;;;;;;;7.00;3.92;;;15.70;98.00;;;;;;6278234;22;20020;-76
2021/07/26 04:54:56;;;;;;;6.40;3.78;;;15.70;98.00;;;;;;6278821;22;20397;-76
2021/07/26 04:57:22;;;;;;;6.45;3.53;;;15.70;98.00;;;;;;6278770;22;20000;-76
2021/07/26 04:59:48;;;;;;;7.28;3.90;;;15.60;98.00;;;;;;6277428;22;20465;-77
2021/07/26 05:02:13;;;;;;;8.10;3.90;;;15.60;98.00;;;;;;6279374;22;19992;-77
2021/07/26 05:04:39;;;;;;;6.43;3.72;;;15.60;98.00;;;;;;6279714;22;20000;-77
2021/07/26 05:07:05;;;;;;;10.43;4.05;;;15.70;98.00;;;;;;6279181;22;20007;-77
2021/07/26 05:09:40;;;;;;;7.38;3.90;;;15.70;98.00;;;;;;6279425;22;19988;-78
2021/07/26 05:12:12;;;;;;;6.88;3.50;;;15.90;98.00;;;;;;6277292;22;20083;-77
2021/07/26 05:14:43;;;;;;;6.05;3.45;;;16.00;98.00;;;;;;6276692;22;20243;-76
2021/07/26 05:17:09;;;;;;;8.40;3.80;;;16.00;97.90;;;;;;6278485;22;20003;-77
2021/07/26 05:19:35;;;;;;;6.97;3.47;;;16.10;98.00;;;;;;6279515;22;19996;-76
2021/07/26 05:22:02;;;;;;;6.95;3.15;;;16.20;98.00;;;;;;6278379;22;20071;-76
2021/07/26 05:24:28;;;;;;;9.30;4.07;;;16.30;97.90;;;;;;6279146;22;20043;-76
2021/07/26 05:27:04;;;;;;;6.13;3.42;;;16.30;97.70;;;;;;6278577;22;20000;-77
2021/07/26 05:29:30;;;;;;;5.93;3.50;;;16.10;97.80;;;;;;6274744;22;20011;-76
2021/07/26 05:31:58;;;;;;;5.97;3.53;;;16.10;97.90;;;;;;6278019;22;20273;-77
2021/07/26 05:34:24;;;;;;;9.68;3.40;;;16.10;98.00;;;;;;6277602;22;20011;-77
2021/07/26 05:36:50;;;;;;;8.32;4.45;;;16.10;97.90;;;;;;6278667;22;20031;-77
2021/07/26 05:39:17;;;;;;;7.10;3.47;;;16.10;97.90;;;;;;6278958;22;20304;-77
2021/07/26 05:41:43;;;;;;;7.95;4.05;;;16.20;97.90;;;;;;6278690;22;19992;-77
2021/07/26 05:44:09;;;;;;;6.82;3.90;;;16.30;97.90;;;;;;6278963;22;20087;-77
2021/07/26 05:46:34;;;;;;;6.25;3.80;;;16.40;98.00;;;;;;6277794;22;20030;-76
2021/07/26 05:49:00;;;;;;;7.10;3.60;;;16.60;97.90;;;;;;6278508;22;20373;-77
2021/07/26 05:51:26;;;;;;;8.88;3.45;;;16.80;97.80;;;;;;6281929;22;20003;-77
2021/07/26 05:53:52;;;;;;;7.05;3.00;;;17.10;97.60;;;;;;6309334;22;20030;-76
2021/07/26 05:56:17;;;;;;;7.68;3.20;;;17.30;97.30;;;;;;6282643;22;20060;-76
2021/07/26 05:58:46;;;;;;;5.95;3.40;;;17.50;97.10;;;;;;6283046;22;20438;-77
2021/07/26 06:03:45;;;;;;;8.23;3.45;;;17.90;96.70;;;;;;6312306;22;20015;-77
2021/07/26 06:06:10;;;;;;;6.72;3.80;;;18.10;96.30;;;;;;6309503;22;20038;-76
2021/07/26 06:08:36;;;;;;;6.13;3.63;;;18.30;96.00;;;;;;6309867;22;19991;-76
2021/07/26 06:11:02;;;;;;;8.95;3.60;;;18.50;95.70;;;;;;6309250;22;20007;-77
2021/07/26 06:13:28;;;;;;;6.40;3.40;;;18.50;95.40;;;;;;6310074;22;20264;-76
2021/07/26 06:15:54;;;;;;;10.10;4.57;;;18.50;95.30;;;;;;6307879;22;20008;-77
2021/07/26 06:18:20;;;;;;;9.32;4.00;;;18.50;94.90;;;;;;6309950;22;20034;-76
2021/07/26 06:20:45;;;;;;;5.97;3.47;;;18.50;95.30;;;;;;6309758;22;19995;-77
2021/07/26 06:23:11;;;;;;;7.95;3.80;;;18.60;94.90;;;;;;6309139;22;20023;-76
2021/07/26 06:25:37;;;;;;;6.07;3.15;;;18.70;95.00;;;;;;6282577;22;20010;-77
2021/07/26 06:28:03;;;;;;;7.45;3.15;;;18.90;94.60;;;;;;6309300;22;20007;-76
2021/07/26 06:30:28;;;;;;;8.43;3.38;;;19.10;94.30;;;;;;6308193;22;20268;-76
2021/07/26 06:32:55;;;;;;;6.40;3.40;;;19.20;94.30;;;;;;6309325;22;20165;-76
2021/07/26 06:35:21;;;;;;;7.22;3.90;;;19.40;93.50;;;;;;6282500;22;20381;-76
2021/07/26 06:37:47;;;;;;;7.32;3.65;;;19.50;93.20;;;;;;6309422;22;20007;-76
2021/07/26 06:40:15;;;;;;;5.95;3.50;;;19.30;93.60;;;;;;6309138;22;20000;-77
2021/07/26 06:42:41;;;;;;;7.95;3.53;;;19.10;93.50;;;;;;6309034;22;20030;-76
2021/07/26 06:45:07;;;;;;;7.15;3.30;;;19.00;94.20;;;;;;6306749;22;20408;-76
2021/07/26 06:47:44;;;;;;;7.25;3.72;;;18.90;94.60;;;;;;6309410;22;20281;-76
2021/07/26 06:50:11;;;;;;;9.10;3.47;;;18.90;94.60;;;;;;6308621;22;20023;-77
2021/07/26 06:52:36;;;;;;;7.97;3.63;;;19.20;94.40;;;;;;6309098;22;20034;-77
2021/07/26 06:55:03;;;;;;;8.75;3.72;;;19.50;93.70;;;;;;6308402;22;20061;-76
2021/07/26 06:57:28;;;;;;;6.18;3.28;;;19.80;93.80;;;;;;6282486;22;20011;-76
2021/07/26 06:59:54;;;;;;;6.57;3.35;;;19.80;93.70;;;;;;6307581;22;20026;-77
2021/07/26 07:02:20;;;;;;;5.45;3.00;;;19.90;92.70;;;;;;6309639;22;19999;-76
2021/07/26 07:04:45;;;;;;;8.18;3.00;;;19.90;92.90;;;;;;6309515;22;19995;-77
2021/07/26 07:07:11;;;;;;;5.90;3.17;;;20.10;92.60;;;;;;6308718;22;19999;-77
2021/07/26 07:09:37;;;;;;;6.20;3.45;;;20.30;91.60;;;;;;6309758;22;19995;-78
2021/07/26 07:12:03;;;;;;;5.82;2.88;;;20.30;92.30;;;;;;6281382;22;20474;-76
2021/07/26 07:14:29;;;;;;;5.72;2.92;;;20.50;92.10;;;;;;6308330;22;20002;-76
2021/07/26 07:16:57;;;;;;;6.57;2.95;;;20.60;91.10;;;;;;6308900;22;20010;-76
2021/07/26 07:19:22;;;;;;;6.18;3.05;;;20.80;90.00;;;;;;6309258;22;20333;-77
2021/07/26 07:21:48;;;;;;;5.80;2.45;;;21.20;89.30;;;;;;6309583;22;19995;-77
2021/07/26 07:24:14;;;;;;;5.05;2.83;;;21.50;88.60;;;;;;6309054;22;20026;-76
2021/07/26 07:26:40;;;;;;;4.60;2.42;;;21.70;88.40;;;;;;6309586;22;20407;-78
2021/07/26 07:29:05;;;;;;;5.55;2.72;;;22.20;85.70;;;;;;6308844;22;20007;-77
2021/07/26 07:31:36;;;;;;;5.43;2.75;;;22.50;84.60;;;;;;6308078;22;20007;-77
2021/07/26 07:34:04;;;;;;;7.70;3.15;;;22.90;83.00;;;;;;6308851;22;20019;-76
2021/07/26 07:36:30;;;;;;;4.28;2.17;;;23.10;79.80;;;;;;6309263;22;20010;-77
2021/07/26 07:38:56;;;;;;;5.93;2.53;;;23.30;77.10;;;;;;6309029;22;20272;-76
2021/07/26 07:41:23;;;;;;;6.55;2.42;;;23.00;78.10;;;;;;6309623;22;19999;-77
2021/07/26 07:43:49;;;;;;;4.78;2.25;;;23.50;77.40;;;;;;6281815;22;20026;-77
2021/07/26 07:46:17;;;;;;;4.82;2.30;;;24.80;75.10;;;;;;6307708;22;19999;-77
2021/07/26 07:48:42;;;;;;;5.22;2.55;;;25.40;72.80;;;;;;6309258;22;20003;-78
2021/07/26 07:51:09;;;;;;;6.15;2.92;;;25.20;75.80;;;;;;6308667;22;20003;-77
2021/07/26 07:53:35;;;;;;;7.47;2.80;;;25.80;75.50;;;;;;6309333;22;20011;-77
2021/07/26 07:56:02;;;;;;;5.05;2.60;;;26.50;74.40;;;;;;6310304;22;20007;-77
2021/07/26 07:58:27;;;;;;;4.55;2.45;;;26.90;73.00;;;;;;6310736;22;20045;-77
2021/07/26 08:00:56;;;;;;;5.10;2.67;;;28.00;71.40;;;;;;6309306;22;19995;-77
2021/07/26 08:03:22;;;;;;;4.82;2.45;;;28.50;70.40;;;;;;6311114;22;19995;-77
2021/07/26 08:05:49;;;;;;;5.35;2.00;;;28.50;69.10;;;;;;6311474;22;20069;-77
2021/07/26 08:08:15;;;;;;;5.00;2.50;;;28.30;67.90;;;;;;6283348;22;20010;-78
2021/07/26 08:10:41;;;;;;;5.15;2.50;;;27.40;71.20;;;;;;6311300;22;20391;-77
2021/07/26 08:13:07;;;;;;;5.10;2.40;;;27.50;71.70;;;;;;6283129;22;20007;-77
2021/07/26 08:15:32;;;;;;;5.53;3.00;;;26.50;69.40;;;;;;6309258;22;20014;-77
2021/07/26 08:17:58;;;;;;;5.75;2.72;;;25.40;74.10;;;;;;6310738;22;20000;-77
2021/07/26 08:20:24;;;;;;;8.18;2.40;;;24.80;74.50;;;;;;6311070;22;19995;-76
2021/07/26 08:22:49;;;;;;;7.50;2.63;;;25.30;73.60;;;;;;6311045;22;20524;-76
2021/07/26 08:25:16;;;;;;;5.57;2.78;;;26.20;71.70;;;;;;6283915;22;20010;-76
2021/07/26 08:27:53;;;;;;;5.22;2.83;;;27.20;71.10;;;;;;6310953;22;20006;-78
2021/07/26 08:30:37;;;;;;;4.47;2.30;;;27.50;69.90;;;;;;6282280;22;20397;-79
2021/07/26 08:33:03;;;;;;;7.47;3.47;;;27.20;69.30;;;;;;6310425;22;20053;-78
2021/07/26 08:35:30;;;;;;;7.63;3.30;;;25.40;75.00;;;;;;6310924;22;20010;-78
2021/07/26 08:37:56;;;;;;;6.20;2.83;;;24.90;76.30;;;;;;6310549;22;20029;-77
2021/07/26 08:40:24;;;;;;;4.32;2.70;;;25.10;76.10;;;;;;6310984;22;20003;-77
2021/07/26 08:42:50;;;;;;;4.90;2.70;;;25.10;76.00;;;;;;6310090;22;20006;-77
2021/07/26 08:45:17;;;;;;;6.22;3.13;;;26.00;74.90;;;;;;6309126;22;20341;-77
2021/07/26 08:47:45;;;;;;;5.10;2.58;;;26.60;72.40;;;;;;6283245;22;20016;-78
2021/07/26 08:50:13;;;;;;;5.15;2.90;;;26.80;73.30;;;;;;6283262;22;20082;-77
2021/07/26 08:52:48;;;;;;;5.18;2.67;;;27.40;73.10;;;;;;6310712;22;20060;-77
2021/07/26 08:55:15;;;;;;;4.97;2.60;;;28.00;69.50;;;;;;6282785;22;20038;-77
2021/07/26 08:57:43;;;;;;;4.35;2.42;;;28.10;68.20;;;;;;6283633;22;19999;-77
2021/07/26 09:00:11;;;;;;;6.18;2.35;;;28.00;69.70;;;;;;6308640;22;20002;-77
2021/07/26 09:02:37;;;;;;;7.38;2.78;;;28.70;65.40;;;;;;6310812;22;19994;-78
2021/07/26 09:05:03;;;;;;;4.25;2.50;;;29.90;63.50;;;;;;6282971;22;20003;-77
2021/07/26 09:07:28;;;;;;;5.80;2.65;;;30.50;62.00;;;;;;6309885;22;19991;-77
2021/07/26 09:09:54;;;;;;;5.22;2.38;;;30.40;64.40;;;;;;6309995;22;20364;-78
2021/07/26 09:12:33;;;;;;;7.85;2.70;;;30.40;63.80;;;;;;6283645;22;20003;-77
2021/07/26 09:15:03;;;;;;;4.93;2.35;;;28.30;66.10;;;;;;6308210;22;20006;-78
2021/07/26 09:17:45;;;;;;;6.20;2.55;;;27.70;67.70;;;;;;6310528;22;20006;-78
2021/07/26 09:20:13;;;;;;;5.63;2.47;;;28.20;67.20;;;;;;6309975;22;20379;-77
2021/07/26 09:22:41;;;;;;;5.18;2.88;;;27.90;66.80;;;;;;6308627;22;20446;-77
2021/07/26 09:25:23;;;;;;;7.95;2.83;;;27.10;67.10;;;;;;6310128;22;20314;-78
2021/07/26 09:28:20;;;;;;;5.28;2.70;;;26.00;69.90;;;;;;6310489;22;20032;-77
2021/07/26 09:30:48;;;;;;;5.70;2.75;;;25.20;71.80;;;;;;6308719;22;20057;-77
2021/07/26 09:33:18;;;;;;;4.80;2.60;;;25.10;73.70;;;;;;6309803;22;20319;-78
2021/07/26 09:35:44;;;;;;;5.97;2.70;;;24.90;74.50;;;;;;6282668;22;20085;-77
2021/07/26 09:38:10;;;;;;;4.28;2.25;;;25.00;75.90;;;;;;6309775;22;20482;-77
2021/07/26 09:40:36;;;;;;;5.85;2.50;;;26.30;72.70;;;;;;6310357;22;20304;-78
2021/07/26 09:43:22;;;;;;;5.82;2.40;;;28.60;67.70;;;;;;6282610;22;20052;-78
2021/07/26 09:45:49;;;;;;;5.72;2.55;;;30.90;63.50;;;;;;6281672;22;20365;-78
2021/07/26 09:48:17;;;;;;;4.78;2.58;;;32.00;62.30;;;;;;6309811;22;20003;-78
2021/07/26 09:50:44;;;;;;;5.13;2.42;;;32.60;59.80;;;;;;6310497;22;20007;-78
2021/07/26 09:53:17;;;;;;;4.68;2.70;;;31.60;62.00;;;;;;6282476;22;20014;-78
2021/07/26 09:55:45;;;;;;;5.80;3.05;;;30.00;63.90;;;;;;6309889;22;20011;-78
2021/07/26 09:58:13;;;;;;;4.35;2.38;;;28.20;67.40;;;;;;6282654;22;20033;-78
2021/07/26 10:00:40;;;;;;;5.10;2.80;;;26.90;70.20;;;;;;6308533;22;19998;-77
2021/07/26 10:03:08;;;;;;;5.60;2.90;;;27.50;69.80;;;;;;6308995;22;20049;-77
2021/07/26 10:05:35;;;;;;;5.88;2.92;;;28.90;68.00;;;;;;6309894;22;19999;-77
2021/07/26 10:08:02;;;;;;;5.50;2.78;;;30.20;65.80;;;;;;6309363;22;20026;-77
2021/07/26 10:10:28;;;;;;;8.98;2.83;;;30.90;65.10;;;;;;6309983;22;20026;-77
2021/07/26 10:12:54;;;;;;;8.10;2.60;;;31.50;61.00;;;;;;6282145;22;20003;-78
2021/07/26 10:15:20;;;;;;;4.13;2.20;;;31.90;60.40;;;;;;6308365;22;20360;-77
2021/07/26 10:17:47;;;;;;;5.13;2.70;;;31.90;61.30;;;;;;6309949;22;20006;-78
2021/07/26 10:20:23;;;;;;;4.22;2.55;;;30.90;61.20;;;;;;6309514;22;20006;-78
2021/07/26 10:22:57;;;;;;;5.20;2.30;;;29.80;64.50;;;;;;6309896;22;20022;-78
2021/07/26 10:25:33;;;;;;;5.43;2.88;;;29.10;66.80;;;;;;6282849;22;20093;-79
2021/07/26 10:28:02;;;;;;;6.78;3.10;;;28.40;67.30;;;;;;6281903;22;20008;-78
2021/07/26 10:30:37;;;;;;;6.57;2.63;;;28.50;66.40;;;;;;6308256;22;20003;-77
2021/07/26 10:33:04;;;;;;;6.50;3.08;;;27.80;68.50;;;;;;6309418;22;20003;-77
2021/07/26 10:35:37;;;;;;;6.38;3.33;;;26.90;72.70;;;;;;6309330;22;20277;-78
2021/07/26 10:38:07;;;;;;;5.97;3.33;;;25.70;74.20;;;;;;6309523;22;20003;-78
2021/07/26 10:40:43;;;;;;;6.00;2.95;;;25.00;75.90;;;;;;6309848;22;20264;-78
2021/07/26 10:43:15;;;;;;;6.28;3.17;;;24.70;78.30;;;;;;6308984;22;20004;-78
2021/07/26 10:45:49;;;;;;;5.90;3.03;;;24.80;77.50;;;;;;6307889;22;20000;-78
2021/07/26 10:48:21;;;;;;;4.57;2.70;;;25.20;74.70;;;;;;6309127;22;20277;-78
2021/07/26 10:50:48;;;;;;;6.07;2.60;;;26.70;74.00;;;;;;6282409;22;20246;-78
2021/07/26 10:53:35;;;;;;;5.57;2.70;;;28.10;69.20;;;;;;6308883;22;20026;-78
2021/07/26 10:56:11;;;;;;;6.18;3.50;;;27.90;67.20;;;;;;6308928;22;20010;-78
2021/07/26 10:58:46;;;;;;;5.97;2.97;;;27.50;69.10;;;;;;6282368;22;20088;-78
2021/07/26 11:01:21;;;;;;;5.97;2.90;;;27.10;72.70;;;;;;6307608;22;20002;-79
2021/07/26 11:03:55;;;;;;;5.72;2.97;;;27.60;70.00;;;;;;6309604;22;20002;-78
2021/07/26 11:06:36;;;;;;;6.68;3.03;;;27.90;67.60;;;;;;6309812;22;20277;-78
2021/07/26 11:09:27;;;;;;;5.82;3.03;;;28.50;67.30;;;;;;6308953;22;20017;-78
2021/07/26 11:11:53;;;;;;;4.97;2.58;;;28.90;65.70;;;;;;6294704;22;20383;-76
2021/07/26 11:14:20;;;;;;;5.97;3.13;;;29.60;64.90;;;;;;6281451;22;20007;-78
2021/07/26 11:16:52;;;;;;;5.57;3.05;;;29.60;65.30;;;;;;6308277;22;20425;-78
2021/07/26 11:19:43;;;;;;;5.43;2.88;;;28.10;69.70;;;;;;6281893;22;20003;-78
2021/07/26 11:22:21;;;;;;;5.35;2.88;;;27.40;70.60;;;;;;6309047;22;20284;-80
2021/07/26 11:24:48;;;;;;;5.60;3.30;;;26.70;73.60;;;;;;6282195;22;19995;-79
2021/07/26 11:27:37;;;;;;;5.65;3.22;;;26.20;74.30;;;;;;6282810;22;20007;-78
2021/07/26 11:30:04;;;;;;;6.22;3.10;;;25.90;75.40;;;;;;6308741;22;20004;-80
2021/07/26 11:32:30;;;;;;;7.15;3.33;;;25.40;77.60;;;;;;6311653;22;20003;-78
2021/07/26 11:34:58;;;;;;;7.07;3.30;;;25.10;77.80;;;;;;6310951;22;20030;-79
2021/07/26 11:37:35;;;;;;;5.50;3.33;;;24.90;78.00;;;;;;6311664;22;20003;-79
2021/07/26 11:40:06;;;;;;;6.40;3.28;;;25.00;78.10;;;;;;6310847;22;19999;-79
2021/07/26 11:42:43;;;;;;;6.38;3.15;;;25.30;77.80;;;;;;6282906;22;20462;-80
2021/07/26 11:45:12;;;;;;;5.60;3.28;;;25.40;79.20;;;;;;6282313;22;19999;-78
2021/07/26 11:47:43;;;;;;;6.07;3.38;;;25.30;77.00;;;;;;6284406;22;20000;-79
2021/07/26 11:50:14;;;;;;;5.82;3.25;;;24.90;77.80;;;;;;6284186;22;20007;-79
2021/07/26 11:52:52;;;;;;;5.50;3.33;;;24.60;78.20;;;;;;6311511;22;20031;-78
2021/07/26 11:55:18;;;;;;;6.03;3.25;;;24.30;81.40;;;;;;6311387;22;20148;-78
2021/07/26 11:57:56;;;;;;;5.60;3.35;;;24.30;81.90;;;;;;6284132;22;20038;-79
2021/07/26 12:00:43;;;;;;;5.63;3.03;;;24.00;82.60;;;;;;6310008;22;20074;-78
2021/07/26 12:03:09;;;;;;;7.65;3.30;;;23.70;84.80;;;;;;6307456;22;20006;-78
2021/07/26 12:05:36;;;;;;;7.28;3.38;;;23.50;86.50;;;;;;6307487;22;19999;-79
2021/07/26 12:08:14;;;;;;;6.03;3.47;;;23.40;87.00;;;;;;6306069;22;19999;-79
2021/07/26 12:10:39;;;;;;;6.05;3.33;;;23.40;87.70;;;;;;6308340;22;19995;-78
2021/07/26 12:13:10;;;;;;;7.18;3.55;;;23.20;88.80;;;;;;6309762;22;19999;-78
2021/07/26 12:15:38;;;;;;;6.30;3.88;;;23.00;90.00;;;;;;6280901;22;20065;-78
2021/07/26 12:18:06;;;;;;;7.80;4.15;;;22.70;89.20;;;;;;6309374;22;20035;-78
2021/07/26 12:20:34;;;;;;;9.38;4.07;;;22.50;90.90;;;;;;6310209;22;19992;-78
2021/07/26 12:23:10;;;;;;;6.18;3.67;;;22.10;92.10;;;;;;6309666;22;20378;-78
2021/07/26 12:25:47;;;;;;;5.97;3.42;;;21.80;93.30;;;;;;6283063;22;20361;-77
2021/07/26 12:28:14;;;;;;;6.32;3.72;;;21.60;93.60;;;;;;6282238;22;20031;-78
2021/07/26 12:30:43;;;;;;;5.68;3.55;;;21.50;93.90;;;;;;6308814;22;20272;-77
2021/07/26 12:33:25;;;;;;;6.53;4.07;;;21.30;94.20;;;;;;6282796;22;20018;-78
2021/07/26 12:36:08;;;;;;;7.75;3.58;;;21.00;94.60;;;;;;6309453;22;20003;-78
2021/07/26 12:38:34;;;;;;;6.43;4.07;;;20.80;95.30;;;;;;6283554;22;20076;-79
2021/07/26 12:41:04;;;;;;;7.03;3.67;;;20.40;95.70;;;;;;6309962;22;19995;-78
2021/07/26 12:43:31;;;;;;;9.75;4.45;;;20.00;96.20;;;;;;6310722;22;19995;-79
2021/07/26 12:46:05;;;;;;;9.88;4.60;;;19.70;96.60;;;;;;6308525;22;20003;-79
2021/07/26 12:48:32;;;;;;;8.63;4.68;;;19.40;97.00;;;;;;6310887;22;19999;-78
2021/07/26 12:50:59;;;;;;;7.95;4.80;;;19.20;97.10;;;;;;6308785;22;20014;-79
2021/07/26 12:53:27;;;;;;;8.02;5.00;;;19.00;97.20;;;;;;6283737;22;20058;-79
2021/07/26 12:55:54;;;;;;;10.40;5.30;;;19.00;97.10;;;;;;6283373;22;20276;-79